Time;durP1;ratioP1;P1;durP2;ratioP2;P2;SDS_P1;SDS_P2;PMS_P1;PMS_P2;Temp;Humidity;BMP_temperature;BMP_pressure;BME280_temperature;BME280_humidity;BME280_pressure;Samples;Min_cycle;Max_cycle;Signal;HPM_P1;HPM_P2
2023/03/13 00:01:00;;;;;;;26.55;5.07;;;8.10;99.90;;;;;;5003835;28;20532;-84
2023/03/13 00:03:26;;;;;;;27.70;6.43;;;8.10;99.90;;;;;;4987372;28;20173;-84
2023/03/13 00:05:58;;;;;;;26.30;6.53;;;8.10;99.90;;;;;;4985961;28;20509;-84
2023/03/13 00:08:28;;;;;;;23.92;5.50;;;8.10;99.90;;;;;;5003175;28;20044;-85
2023/03/13 00:10:54;;;;;;;26.70;5.82;;;8.00;99.90;;;;;;4987490;28;20521;-84
2023/03/13 00:13:20;;;;;;;29.98;6.18;;;8.00;99.90;;;;;;5004105;28;20076;-84
2023/03/13 00:15:45;;;;;;;32.75;5.70;;;8.00;99.90;;;;;;5004754;28;20472;-84
2023/03/13 00:18:11;;;;;;;39.90;5.90;;;8.00;99.90;;;;;;4982879;28;20057;-84
2023/03/13 00:20:37;;;;;;;27.58;6.30;;;8.00;99.90;;;;;;4988417;28;20120;-84
2023/03/13 00:23:02;;;;;;;37.58;8.48;;;8.00;99.90;;;;;;4984427;28;20049;-85
2023/03/13 00:25:28;;;;;;;31.50;5.93;;;8.00;99.90;;;;;;4986026;28;20091;-84
2023/03/13 00:27:54;;;;;;;27.40;7.63;;;8.00;99.90;;;;;;4987808;28;20030;-85
2023/03/13 00:30:20;;;;;;;32.90;7.13;;;7.90;99.90;;;;;;4987702;28;20049;-84
2023/03/13 00:32:47;;;;;;;33.45;6.95;;;7.90;99.90;;;;;;5004457;28;20064;-84
2023/03/13 00:35:13;;;;;;;29.33;5.65;;;7.90;99.90;;;;;;5003848;28;20045;-85
2023/03/13 00:37:39;;;;;;;29.70;6.03;;;7.90;99.90;;;;;;4983243;28;20049;-84
2023/03/13 00:40:05;;;;;;;26.30;6.68;;;7.90;99.90;;;;;;5003774;28;20053;-84
2023/03/13 00:42:31;;;;;;;28.02;6.47;;;7.80;99.90;;;;;;4988845;28;20057;-84
2023/03/13 00:44:59;;;;;;;29.08;6.95;;;7.80;99.90;;;;;;4984502;28;20069;-84
2023/03/13 00:47:25;;;;;;;34.75;6.63;;;7.80;99.90;;;;;;4973567;28;20038;-84
2023/03/13 00:49:51;;;;;;;34.17;6.68;;;7.90;99.90;;;;;;5003253;28;20042;-84
2023/03/13 00:52:16;;;;;;;37.60;7.18;;;7.80;99.90;;;;;;5003980;28;20429;-84
2023/03/13 00:54:42;;;;;;;25.17;5.70;;;7.80;99.90;;;;;;4998401;28;20073;-84
2023/03/13 00:57:08;;;;;;;37.92;7.18;;;7.80;99.90;;;;;;4995892;28;20484;-83
2023/03/13 00:59:34;;;;;;;35.15;6.72;;;7.70;99.90;;;;;;4996037;28;20050;-83
2023/03/13 01:02:00;;;;;;;37.22;6.95;;;7.80;99.90;;;;;;4997320;28;20042;-83
2023/03/13 01:04:26;;;;;;;47.75;7.22;;;7.70;99.90;;;;;;4983972;28;20148;-84
2023/03/13 01:06:51;;;;;;;34.67;7.25;;;7.80;99.90;;;;;;5000859;28;20049;-83
2023/03/13 01:09:17;;;;;;;39.20;6.65;;;7.80;99.90;;;;;;4986145;28;20037;-83
2023/03/13 01:11:43;;;;;;;25.65;5.82;;;7.80;99.90;;;;;;5006617;28;20048;-83
2023/03/13 01:14:15;;;;;;;33.10;7.00;;;7.80;99.90;;;;;;4975474;28;20035;-83
2023/03/13 01:16:42;;;;;;;34.78;7.13;;;7.80;99.90;;;;;;5002235;28;20045;-83
2023/03/13 01:19:11;;;;;;;38.50;7.53;;;7.80;99.90;;;;;;4979680;28;20562;-83
2023/03/13 01:21:36;;;;;;;28.38;6.57;;;7.80;99.90;;;;;;5003381;28;20378;-83
2023/03/13 01:24:03;;;;;;;27.27;6.38;;;7.70;99.90;;;;;;4973495;28;20557;-83
2023/03/13 01:26:29;;;;;;;29.58;5.63;;;7.70;99.90;;;;;;5006448;28;20046;-83
2023/03/13 01:28:55;;;;;;;32.17;6.53;;;7.70;99.90;;;;;;4981510;28;20045;-83
2023/03/13 01:31:29;;;;;;;30.00;5.68;;;7.80;99.90;;;;;;5006645;28;20503;-83
2023/03/13 01:33:57;;;;;;;24.67;5.90;;;7.70;99.90;;;;;;4987906;28;20556;-83
2023/03/13 01:36:24;;;;;;;32.10;5.88;;;7.80;99.90;;;;;;4985619;28;20045;-82
2023/03/13 01:38:52;;;;;;;29.02;6.38;;;7.80;99.90;;;;;;4999570;28;20045;-83
2023/03/13 01:41:18;;;;;;;28.83;5.50;;;7.80;99.90;;;;;;5006507;28;20071;-83
2023/03/13 01:43:45;;;;;;;23.27;6.07;;;7.90;99.90;;;;;;4987792;28;20050;-83
2023/03/13 01:46:16;;;;;;;23.60;5.43;;;7.80;99.90;;;;;;4981457;28;20060;-82
2023/03/13 01:49:15;;;;;;;33.33;7.05;;;7.80;99.90;;;;;;4965190;28;20037;-83
2023/03/13 01:51:52;;;;;;;29.52;6.72;;;7.80;99.90;;;;;;4988415;28;20177;-83
2023/03/13 01:54:28;;;;;;;28.00;8.13;;;7.90;99.90;;;;;;5005055;28;20042;-83
2023/03/13 01:57:05;;;;;;;35.03;8.98;;;7.90;99.90;;;;;;5002039;28;20088;-83
2023/03/13 01:59:46;;;;;;;33.17;6.53;;;7.90;99.90;;;;;;4991450;28;20046;-83
2023/03/13 02:02:13;;;;;;;29.00;6.10;;;7.90;99.90;;;;;;4988166;28;20045;-82
2023/03/13 02:04:45;;;;;;;31.35;6.53;;;7.90;99.90;;;;;;5006852;28;20049;-82
2023/03/13 02:07:17;;;;;;;36.20;6.28;;;7.90;99.90;;;;;;4966010;28;20054;-82
2023/03/13 02:09:47;;;;;;;29.55;6.07;;;8.00;99.90;;;;;;5005522;28;20053;-83
2023/03/13 02:12:17;;;;;;;30.70;5.85;;;8.10;99.90;;;;;;4991318;28;20056;-82
2023/03/13 02:14:45;;;;;;;28.02;5.80;;;8.20;99.90;;;;;;5009125;28;20096;-82
2023/03/13 02:17:12;;;;;;;23.35;7.10;;;8.00;99.90;;;;;;4980568;28;20575;-82
2023/03/13 02:19:42;;;;;;;38.63;6.25;;;8.00;99.90;;;;;;5004436;28;20485;-82
2023/03/13 02:22:30;;;;;;;31.45;7.00;;;8.00;99.90;;;;;;4988045;28;20042;-82
2023/03/13 02:25:08;;;;;;;32.42;6.95;;;8.00;99.90;;;;;;4990609;28;20378;-82
2023/03/13 02:27:34;;;;;;;27.33;5.90;;;8.00;99.90;;;;;;5001566;28;20073;-83
2023/03/13 02:30:00;;;;;;;24.00;5.70;;;7.90;99.90;;;;;;4983749;28;20456;-83
2023/03/13 02:32:28;;;;;;;32.33;7.22;;;7.90;99.90;;;;;;4998178;28;20058;-83
2023/03/13 02:34:57;;;;;;;23.00;5.93;;;7.90;99.90;;;;;;4997832;28;20095;-83
2023/03/13 02:37:26;;;;;;;28.75;7.00;;;7.90;99.90;;;;;;4999173;28;20039;-83
2023/03/13 02:39:53;;;;;;;24.15;5.97;;;7.90;99.90;;;;;;5001042;28;20448;-83
2023/03/13 02:42:21;;;;;;;25.38;5.78;;;7.90;99.90;;;;;;4985647;28;20120;-82
2023/03/13 02:44:47;;;;;;;25.48;6.00;;;7.90;99.90;;;;;;5003674;28;20129;-83
2023/03/13 02:47:18;;;;;;;21.20;6.03;;;7.90;99.90;;;;;;4997953;28;20042;-83
2023/03/13 02:49:44;;;;;;;21.20;6.18;;;7.90;99.90;;;;;;4986958;28;20073;-83
2023/03/13 02:52:18;;;;;;;23.35;5.40;;;7.90;99.90;;;;;;4998606;28;20065;-83
2023/03/13 02:54:46;;;;;;;17.58;5.50;;;7.90;99.90;;;;;;4991431;28;20030;-83
2023/03/13 02:57:12;;;;;;;18.48;5.38;;;8.00;99.90;;;;;;5005612;28;20081;-83
2023/03/13 02:59:38;;;;;;;15.77;5.40;;;8.00;99.90;;;;;;4989691;28;20053;-83
2023/03/13 03:02:04;;;;;;;17.00;5.93;;;8.00;99.90;;;;;;4990832;28;20145;-83
2023/03/13 03:04:30;;;;;;;17.45;5.15;;;8.10;99.90;;;;;;4985286;28;20058;-83
2023/03/13 03:06:56;;;;;;;19.70;5.25;;;8.10;99.90;;;;;;4970941;28;20132;-83
2023/03/13 03:09:22;;;;;;;18.17;5.25;;;8.10;99.90;;;;;;4983688;28;20065;-83
2023/03/13 03:11:48;;;;;;;15.77;4.13;;;8.10;99.90;;;;;;4982228;28;20389;-83
2023/03/13 03:14:14;;;;;;;11.73;4.25;;;8.10;99.90;;;;;;5007472;28;20038;-83
2023/03/13 03:16:41;;;;;;;16.08;4.45;;;8.10;99.90;;;;;;4989899;28;20126;-83
2023/03/13 03:19:07;;;;;;;13.93;4.82;;;8.10;99.90;;;;;;4979860;28;20046;-83
2023/03/13 03:21:33;;;;;;;10.52;4.32;;;8.20;99.90;;;;;;4986415;28;20034;-83
2023/03/13 03:23:59;;;;;;;13.45;4.10;;;8.20;99.90;;;;;;5008372;28;20034;-83
2023/03/13 03:26:25;;;;;;;10.60;4.03;;;8.20;99.90;;;;;;4987595;28;20104;-83
2023/03/13 03:28:50;;;;;;;11.52;4.47;;;8.30;99.90;;;;;;4983566;28;20046;-83
2023/03/13 03:31:16;;;;;;;10.30;4.00;;;8.30;99.90;;;;;;5005254;28;20493;-83
2023/03/13 03:33:43;;;;;;;15.55;5.05;;;8.30;99.90;;;;;;4999875;28;20042;-83
2023/03/13 03:36:12;;;;;;;11.10;3.83;;;8.30;99.90;;;;;;4998984;28;20041;-83
2023/03/13 03:38:38;;;;;;;11.98;3.97;;;8.30;99.90;;;;;;5008486;28;20135;-83
2023/03/13 03:41:09;;;;;;;14.13;4.50;;;9.00;99.90;;;;;;5006486;28;20142;-82
2023/03/13 03:43:35;;;;;;;12.30;4.43;;;8.40;99.90;;;;;;4987550;28;20034;-83
2023/03/13 03:46:03;;;;;;;11.05;4.18;;;8.40;99.90;;;;;;4978353;28;20294;-83
2023/03/13 03:48:29;;;;;;;11.95;4.30;;;8.40;99.90;;;;;;4987054;28;20394;-83
2023/03/13 03:50:54;;;;;;;8.02;3.45;;;8.50;99.90;;;;;;4972008;28;20482;-83
2023/03/13 03:53:20;;;;;;;7.75;3.72;;;8.50;99.90;;;;;;4988340;28;20113;-83
2023/03/13 03:55:46;;;;;;;9.55;4.47;;;8.60;99.90;;;;;;4985396;28;20045;-83
2023/03/13 03:58:11;;;;;;;8.32;3.72;;;8.60;99.90;;;;;;4973797;28;20400;-83
2023/03/13 04:00:37;;;;;;;9.75;3.75;;;8.60;99.90;;;;;;4985316;28;20136;-83
2023/03/13 04:03:03;;;;;;;11.10;4.18;;;8.60;99.90;;;;;;4990214;28;20049;-83
2023/03/13 04:05:29;;;;;;;11.80;4.13;;;8.70;99.90;;;;;;4984467;28;20045;-83
2023/03/13 04:07:54;;;;;;;7.43;4.03;;;8.70;99.90;;;;;;4989482;28;20046;-83
2023/03/13 04:10:20;;;;;;;10.20;4.30;;;8.70;99.90;;;;;;4980872;28;20045;-83
2023/03/13 04:12:46;;;;;;;7.03;3.90;;;9.30;99.90;;;;;;4977809;28;20162;-83
2023/03/13 04:15:12;;;;;;;7.50;3.92;;;8.70;99.90;;;;;;4984898;28;20111;-83
2023/03/13 04:17:38;;;;;;;9.38;4.28;;;8.70;99.90;;;;;;5005940;28;20635;-83
2023/03/13 04:20:04;;;;;;;9.48;4.25;;;8.80;99.90;;;;;;4980164;28;20500;-83
2023/03/13 04:22:30;;;;;;;8.45;4.25;;;8.80;99.90;;;;;;4973521;28;20064;-83
2023/03/13 04:24:56;;;;;;;11.07;4.60;;;8.80;99.90;;;;;;4987420;28;20540;-82
2023/03/13 04:27:21;;;;;;;12.52;4.18;;;8.90;99.90;;;;;;5001558;28;20362;-83
2023/03/13 04:29:47;;;;;;;8.70;4.63;;;8.90;99.90;;;;;;5002805;28;20485;-83
2023/03/13 04:32:13;;;;;;;10.10;4.90;;;8.90;99.90;;;;;;4984692;28;20064;-83
2023/03/13 04:34:38;;;;;;;11.27;4.72;;;8.90;99.90;;;;;;5006785;28;20069;-83
2023/03/13 04:37:04;;;;;;;12.98;5.10;;;9.00;99.90;;;;;;4977702;28;20092;-83
2023/03/13 04:39:30;;;;;;;9.35;4.68;;;9.00;99.90;;;;;;4982014;28;20046;-82
2023/03/13 04:41:56;;;;;;;10.70;4.68;;;9.10;99.90;;;;;;5003378;28;20046;-83
2023/03/13 04:44:22;;;;;;;11.45;5.15;;;9.10;99.90;;;;;;5003622;28;20037;-83
2023/03/13 04:46:48;;;;;;;13.85;5.43;;;9.20;99.90;;;;;;4998958;28;20049;-83
2023/03/13 04:49:15;;;;;;;12.95;5.10;;;9.20;99.90;;;;;;4964180;28;20081;-82
2023/03/13 04:51:42;;;;;;;11.15;6.28;;;9.20;99.90;;;;;;4988883;28;20585;-83
2023/03/13 04:54:07;;;;;;;11.45;6.13;;;9.40;99.90;;;;;;4984330;28;20046;-83
2023/03/13 04:56:34;;;;;;;17.77;7.18;;;9.30;99.90;;;;;;4999578;28;20684;-83
2023/03/13 04:58:59;;;;;;;13.93;6.88;;;9.40;99.90;;;;;;4986344;28;20453;-83
2023/03/13 05:01:25;;;;;;;15.02;7.07;;;9.40;99.90;;;;;;4987972;28;20112;-83
2023/03/13 05:03:51;;;;;;;14.63;6.82;;;9.50;99.90;;;;;;5002862;28;20078;-83
2023/03/13 05:06:19;;;;;;;13.30;7.43;;;9.60;99.90;;;;;;4984112;28;20058;-83
2023/03/13 05:08:45;;;;;;;12.27;6.88;;;9.60;99.90;;;;;;4988099;28;20719;-83
2023/03/13 05:11:11;;;;;;;13.20;6.78;;;9.60;99.90;;;;;;4984596;28;20086;-83
2023/03/13 05:13:39;;;;;;;12.85;8.05;;;9.60;99.90;;;;;;4986375;28;20084;-83
2023/03/13 05:16:05;;;;;;;13.15;6.88;;;9.60;99.90;;;;;;4977930;28;20072;-83
2023/03/13 05:18:31;;;;;;;13.68;7.28;;;9.70;99.90;;;;;;4977898;28;20054;-83
2023/03/13 05:20:57;;;;;;;15.68;7.13;;;9.70;99.90;;;;;;5005730;28;20457;-83
2023/03/13 05:23:22;;;;;;;17.85;7.95;;;9.70;99.90;;;;;;4973735;28;20690;-83
2023/03/13 05:25:48;;;;;;;16.33;7.95;;;9.70;99.90;;;;;;4978080;28;20046;-83
2023/03/13 05:28:14;;;;;;;19.50;9.00;;;9.80;99.90;;;;;;4989474;28;20054;-83
2023/03/13 05:30:39;;;;;;;18.60;9.38;;;9.90;99.90;;;;;;5005733;28;20061;-83
2023/03/13 05:33:05;;;;;;;24.95;9.82;;;9.90;99.90;;;;;;4978084;28;20402;-83
2023/03/13 05:35:31;;;;;;;17.90;9.05;;;9.90;99.90;;;;;;4984927;28;20108;-83
2023/03/13 05:37:56;;;;;;;18.90;9.55;;;9.80;99.90;;;;;;4988365;28;20460;-83
2023/03/13 05:40:22;;;;;;;21.45;9.93;;;10.00;99.90;;;;;;4988876;28;20042;-83
2023/03/13 05:42:47;;;;;;;15.45;9.02;;;10.00;99.90;;;;;;4979430;28;20082;-83
2023/03/13 05:45:13;;;;;;;14.18;7.45;;;10.00;99.90;;;;;;4985731;28;20042;-83
2023/03/13 05:47:39;;;;;;;11.52;7.63;;;10.00;99.90;;;;;;4990408;28;20283;-83
2023/03/13 05:50:06;;;;;;;15.38;8.15;;;10.10;99.90;;;;;;4986154;28;20090;-83
2023/03/13 05:52:32;;;;;;;19.20;8.48;;;10.10;99.90;;;;;;4984551;28;20443;-83
2023/03/13 05:54:58;;;;;;;17.48;8.15;;;10.10;99.90;;;;;;4990003;28;20034;-82
2023/03/13 05:57:24;;;;;;;12.40;6.90;;;10.10;99.90;;;;;;4982948;28;20106;-83
2023/03/13 05:59:50;;;;;;;12.60;6.88;;;10.20;99.90;;;;;;4985609;28;20112;-83
2023/03/13 06:02:15;;;;;;;12.25;6.85;;;10.20;99.90;;;;;;4987300;28;20117;-83
2023/03/13 06:04:41;;;;;;;11.90;6.65;;;10.40;99.90;;;;;;4986354;28;20134;-83
2023/03/13 06:07:07;;;;;;;11.63;6.38;;;10.20;99.90;;;;;;4988248;28;20057;-83
2023/03/13 06:09:32;;;;;;;14.45;7.43;;;10.20;99.90;;;;;;4987113;28;20536;-83
2023/03/13 06:11:58;;;;;;;11.65;6.25;;;10.30;99.90;;;;;;4988628;28;20050;-83
2023/03/13 06:14:24;;;;;;;12.48;6.30;;;10.30;99.90;;;;;;4986433;28;20068;-83
2023/03/13 06:16:49;;;;;;;13.80;7.47;;;10.30;99.90;;;;;;4984035;28;20052;-83
2023/03/13 06:19:15;;;;;;;12.02;7.38;;;10.40;99.90;;;;;;4982362;28;20387;-83
2023/03/13 06:21:41;;;;;;;14.32;7.65;;;10.30;99.90;;;;;;4990309;28;20042;-83
2023/03/13 06:24:07;;;;;;;15.30;7.50;;;10.30;99.90;;;;;;4986959;28;20034;-83
2023/03/13 06:26:32;;;;;;;13.40;8.30;;;10.30;99.90;;;;;;4985178;28;20406;-83
2023/03/13 06:28:58;;;;;;;14.38;7.47;;;10.30;99.90;;;;;;4979736;28;20038;-83
2023/03/13 06:31:24;;;;;;;12.68;7.05;;;10.30;99.90;;;;;;4979703;28;20042;-83
2023/03/13 06:33:53;;;;;;;14.23;7.75;;;10.40;99.90;;;;;;5005069;28;20129;-83
2023/03/13 06:36:20;;;;;;;12.20;7.00;;;10.40;99.90;;;;;;5010323;28;20129;-83
2023/03/13 06:38:45;;;;;;;18.02;7.65;;;10.40;99.90;;;;;;5010367;28;20118;-83
2023/03/13 06:41:11;;;;;;;12.88;6.63;;;10.50;99.90;;;;;;5010339;28;20118;-83
2023/03/13 06:43:39;;;;;;;12.60;6.80;;;10.40;99.90;;;;;;5010452;28;20049;-82
2023/03/13 06:46:06;;;;;;;11.98;5.50;;;10.40;99.90;;;;;;5009759;28;20121;-83
2023/03/13 06:48:32;;;;;;;11.38;6.22;;;10.50;99.90;;;;;;4987947;28;20034;-84
2023/03/13 06:50:58;;;;;;;15.07;6.82;;;10.50;99.90;;;;;;5002120;28;20100;-83
2023/03/13 06:53:23;;;;;;;14.85;5.65;;;10.60;99.90;;;;;;5003143;28;20388;-83
2023/03/13 06:55:49;;;;;;;13.15;6.43;;;10.60;99.90;;;;;;5010195;28;20034;-83
2023/03/13 06:58:16;;;;;;;15.75;6.65;;;10.80;99.90;;;;;;5003152;28;20374;-82
2023/03/13 07:00:43;;;;;;;18.40;7.32;;;10.50;99.90;;;;;;5007270;28;20050;-83
2023/03/13 07:03:09;;;;;;;14.35;6.20;;;10.60;99.90;;;;;;5010084;28;20045;-82
2023/03/13 07:05:36;;;;;;;13.50;6.95;;;10.60;99.90;;;;;;5006138;28;20030;-83
2023/03/13 07:08:01;;;;;;;14.27;7.20;;;10.70;99.90;;;;;;4993421;28;20118;-82
2023/03/13 07:10:27;;;;;;;21.20;7.30;;;10.60;99.90;;;;;;5002748;28;20113;-83
2023/03/13 07:12:53;;;;;;;17.77;7.22;;;10.60;99.90;;;;;;5006388;28;20124;-83
2023/03/13 07:15:19;;;;;;;17.38;6.10;;;10.60;99.90;;;;;;5010234;28;20460;-85
2023/03/13 07:17:44;;;;;;;18.30;7.07;;;10.60;99.90;;;;;;5007242;28;20092;-84
2023/03/13 07:20:10;;;;;;;16.15;7.45;;;11.00;99.90;;;;;;5010198;28;20504;-85
2023/03/13 07:22:36;;;;;;;14.95;6.43;;;10.60;99.90;;;;;;5009915;28;20033;-83
2023/03/13 07:25:03;;;;;;;14.38;6.50;;;10.60;99.90;;;;;;5004216;28;20116;-85
2023/03/13 07:27:29;;;;;;;17.42;6.03;;;10.70;99.90;;;;;;5003870;28;20568;-84
2023/03/13 07:29:55;;;;;;;20.70;6.97;;;10.70;99.90;;;;;;4986365;28;20126;-84
2023/03/13 07:32:20;;;;;;;18.05;7.40;;;10.70;99.90;;;;;;5001966;28;20085;-84
2023/03/13 07:34:46;;;;;;;15.65;6.78;;;10.70;99.90;;;;;;5005186;28;20046;-82
2023/03/13 07:37:13;;;;;;;19.58;6.47;;;11.10;99.90;;;;;;5005965;28;20125;-82
2023/03/13 07:39:39;;;;;;;19.83;6.38;;;10.70;99.90;;;;;;5006520;28;20553;-82
2023/03/13 07:42:04;;;;;;;12.82;5.80;;;10.80;99.90;;;;;;5007488;28;20113;-82
2023/03/13 07:44:30;;;;;;;17.77;6.20;;;10.80;99.90;;;;;;4996430;28;20117;-82
2023/03/13 07:46:59;;;;;;;11.23;5.90;;;10.80;99.90;;;;;;5002496;28;20046;-81
2023/03/13 07:49:25;;;;;;;15.40;5.80;;;10.80;99.90;;;;;;5001741;28;20049;-82
2023/03/13 07:51:50;;;;;;;15.02;6.55;;;10.80;99.90;;;;;;4998241;28;20046;-82
2023/03/13 07:54:16;;;;;;;19.85;6.47;;;11.00;99.90;;;;;;4998066;28;20030;-82
2023/03/13 07:56:42;;;;;;;14.65;6.40;;;10.80;99.90;;;;;;5007552;28;20045;-82
2023/03/13 07:59:08;;;;;;;14.60;6.20;;;10.80;99.90;;;;;;4990487;28;20544;-83
2023/03/13 08:01:34;;;;;;;14.93;5.38;;;10.70;99.90;;;;;;5003725;28;20489;-82
2023/03/13 08:04:03;;;;;;;16.13;5.30;;;10.70;99.90;;;;;;4999610;28;20397;-83
2023/03/13 08:06:31;;;;;;;15.32;5.70;;;10.70;99.90;;;;;;5000938;28;20485;-84
2023/03/13 08:08:58;;;;;;;13.35;6.07;;;10.70;99.90;;;;;;5008841;28;20030;-84
2023/03/13 08:11:25;;;;;;;10.57;5.75;;;10.70;99.90;;;;;;5004609;28;20042;-84
2023/03/13 08:13:52;;;;;;;9.02;4.88;;;10.70;99.90;;;;;;5002106;28;20524;-84
2023/03/13 08:16:20;;;;;;;13.07;5.40;;;10.70;99.90;;;;;;5000747;28;20049;-84
2023/03/13 08:18:48;;;;;;;10.05;4.72;;;10.70;99.90;;;;;;4998508;28;20077;-83
2023/03/13 08:21:20;;;;;;;10.98;4.40;;;10.70;99.90;;;;;;5004690;28;20092;-84
2023/03/13 08:23:47;;;;;;;11.13;3.90;;;10.70;99.90;;;;;;5004896;28;20034;-84
2023/03/13 08:26:18;;;;;;;9.85;3.88;;;10.70;99.90;;;;;;5002224;28;20092;-84
2023/03/13 08:28:46;;;;;;;8.82;3.17;;;10.70;99.90;;;;;;5000295;28;20042;-84
2023/03/13 08:31:17;;;;;;;6.78;3.10;;;10.80;99.90;;;;;;5007553;28;20108;-84
2023/03/13 08:33:45;;;;;;;5.53;2.40;;;10.80;99.90;;;;;;4997840;28;20065;-84
2023/03/13 08:36:17;;;;;;;6.07;2.15;;;10.90;99.90;;;;;;5002941;28;20127;-84
2023/03/13 08:38:43;;;;;;;5.47;2.05;;;10.90;99.90;;;;;;4993226;28;20042;-84
2023/03/13 08:41:10;;;;;;;6.38;2.75;;;10.90;99.90;;;;;;5008882;28;20038;-84
2023/03/13 08:43:36;;;;;;;4.20;1.95;;;11.00;99.90;;;;;;5002964;28;20042;-84
2023/03/13 08:46:01;;;;;;;6.25;2.05;;;11.00;99.90;;;;;;5006412;28;20046;-84
2023/03/13 08:48:27;;;;;;;6.95;1.75;;;11.20;99.90;;;;;;4998436;28;20040;-84
2023/03/13 08:51:20;;;;;;;7.00;1.55;;;11.20;99.90;;;;;;4997871;28;20133;-84
2023/03/13 08:53:46;;;;;;;8.30;1.92;;;11.30;99.90;;;;;;4997665;28;20047;-84
2023/03/13 08:56:17;;;;;;;5.28;1.52;;;11.60;99.90;;;;;;5008334;28;20034;-84
2023/03/13 08:58:43;;;;;;;6.85;1.65;;;11.40;99.90;;;;;;5010756;28;20058;-84
2023/03/13 09:01:13;;;;;;;9.02;1.30;;;11.40;99.90;;;;;;5012762;28;20041;-84
2023/03/13 09:03:40;;;;;;;5.13;1.45;;;11.40;99.90;;;;;;5009379;28;20046;-84
2023/03/13 09:06:06;;;;;;;5.30;1.30;;;11.40;99.90;;;;;;5008667;28;20045;-84
2023/03/13 09:08:32;;;;;;;8.35;1.45;;;11.50;99.90;;;;;;5000332;28;20061;-84
2023/03/13 09:11:00;;;;;;;5.50;1.60;;;11.60;99.90;;;;;;5004587;28;20534;-84
2023/03/13 09:13:28;;;;;;;5.95;1.42;;;11.70;99.90;;;;;;5003313;28;20113;-84
2023/03/13 09:15:58;;;;;;;4.40;1.70;;;11.80;99.90;;;;;;4992852;28;20116;-84
2023/03/13 09:18:24;;;;;;;5.68;1.70;;;11.80;99.90;;;;;;5001288;28;20481;-83
2023/03/13 09:20:50;;;;;;;11.07;2.50;;;11.80;99.90;;;;;;5007142;28;20113;-83
2023/03/13 09:23:16;;;;;;;6.82;1.60;;;11.80;99.90;;;;;;5004003;28;20034;-84
2023/03/13 09:25:42;;;;;;;7.53;2.25;;;11.80;99.90;;;;;;4999698;28;20038;-83
2023/03/13 09:28:08;;;;;;;7.63;2.53;;;11.80;99.90;;;;;;5003380;28;20097;-84
2023/03/13 09:30:33;;;;;;;10.55;1.77;;;11.80;99.90;;;;;;5002914;28;20084;-84
2023/03/13 09:32:59;;;;;;;6.68;1.77;;;11.80;99.90;;;;;;4981416;28;20051;-84
2023/03/13 09:35:25;;;;;;;10.65;2.40;;;11.70;99.90;;;;;;4978969;28;20125;-84
2023/03/13 09:37:50;;;;;;;7.72;2.03;;;11.80;99.90;;;;;;4977166;28;20050;-84
2023/03/13 09:40:19;;;;;;;7.60;2.00;;;11.70;99.90;;;;;;4977124;28;20038;-84
2023/03/13 09:42:52;;;;;;;7.25;1.73;;;11.60;99.90;;;;;;4981677;28;20117;-84
2023/03/13 09:45:31;;;;;;;7.80;1.95;;;11.60;99.90;;;;;;4987583;28;20078;-83
2023/03/13 09:48:07;;;;;;;6.35;1.90;;;11.60;99.90;;;;;;4983304;28;20121;-84
2023/03/13 09:50:36;;;;;;;5.57;1.83;;;11.70;99.90;;;;;;4980907;28;20553;-85
2023/03/13 09:53:13;;;;;;;8.60;2.20;;;11.80;99.90;;;;;;4987590;28;20046;-84
2023/03/13 09:55:40;;;;;;;7.63;2.35;;;11.80;99.90;;;;;;4984544;28;20046;-83
2023/03/13 09:58:21;;;;;;;7.43;2.35;;;12.00;99.90;;;;;;4979064;28;20045;-83
2023/03/13 10:01:03;;;;;;;7.28;2.00;;;11.90;99.90;;;;;;4979241;28;20590;-84
2023/03/13 10:03:39;;;;;;;9.43;2.25;;;12.00;99.90;;;;;;4974902;28;20054;-83
2023/03/13 10:06:15;;;;;;;8.80;2.58;;;12.10;99.90;;;;;;4984552;28;20042;-83
2023/03/13 10:08:41;;;;;;;11.50;2.65;;;12.10;99.90;;;;;;4990419;28;20104;-84
2023/03/13 10:11:51;;;;;;;9.48;2.38;;;12.10;99.90;;;;;;4990340;28;20042;-83
2023/03/13 10:14:27;;;;;;;8.48;1.77;;;12.30;99.90;;;;;;4942266;29;20039;-83
2023/03/13 10:17:14;;;;;;;10.60;2.60;;;12.40;99.90;;;;;;4932574;29;20427;-83
2023/03/13 10:19:42;;;;;;;11.75;2.10;;;12.50;99.90;;;;;;4924625;29;20048;-84
2023/03/13 10:22:16;;;;;;;11.05;2.08;;;12.50;99.90;;;;;;4932023;29;20131;-83
2023/03/13 10:24:50;;;;;;;10.75;2.30;;;12.50;99.90;;;;;;4932992;29;20619;-84
2023/03/13 10:27:16;;;;;;;8.00;2.10;;;12.60;99.90;;;;;;4931448;29;20455;-84
2023/03/13 10:29:42;;;;;;;14.50;2.47;;;12.60;99.90;;;;;;4931632;29;20036;-84
2023/03/13 10:32:11;;;;;;;12.45;2.78;;;12.70;99.90;;;;;;4931002;29;20051;-83
2023/03/13 10:34:59;;;;;;;8.88;1.83;;;12.70;99.90;;;;;;4932732;29;20599;-83
2023/03/13 10:37:30;;;;;;;10.95;2.15;;;12.80;99.90;;;;;;4931128;29;20051;-83
2023/03/13 10:40:22;;;;;;;10.70;2.65;;;12.80;99.90;;;;;;4931189;29;20047;-83
2023/03/13 10:42:49;;;;;;;11.18;2.28;;;12.80;99.90;;;;;;4930114;29;20145;-83
2023/03/13 10:45:24;;;;;;;7.32;1.63;;;12.90;99.90;;;;;;4954792;28;20157;-83
2023/03/13 10:47:54;;;;;;;14.90;2.65;;;13.00;99.90;;;;;;4997623;28;20055;-84
2023/03/13 10:50:24;;;;;;;11.77;2.25;;;12.90;99.90;;;;;;4974689;28;20117;-83
2023/03/13 10:52:50;;;;;;;13.68;2.63;;;12.90;99.90;;;;;;4974636;28;20490;-84
2023/03/13 10:55:19;;;;;;;14.82;3.17;;;12.90;99.90;;;;;;4982969;28;20046;-83
2023/03/13 10:57:54;;;;;;;17.60;2.67;;;13.20;99.90;;;;;;4985502;28;20050;-83
2023/03/13 11:00:33;;;;;;;15.98;2.38;;;13.00;99.90;;;;;;4979886;28;20081;-83
2023/03/13 11:03:04;;;;;;;9.73;1.98;;;13.00;99.90;;;;;;4985067;28;20489;-83
2023/03/13 11:05:42;;;;;;;14.57;2.45;;;13.00;99.90;;;;;;4981063;28;20047;-83
2023/03/13 11:08:32;;;;;;;12.85;2.35;;;13.10;99.90;;;;;;4988453;28;20078;-84
2023/03/13 11:11:01;;;;;;;12.45;2.38;;;13.00;99.90;;;;;;4986605;28;20077;-83
2023/03/13 11:13:26;;;;;;;11.75;2.45;;;13.00;99.90;;;;;;4984217;28;20062;-83
2023/03/13 11:15:56;;;;;;;9.75;2.63;;;13.00;99.90;;;;;;4986744;28;20089;-83
2023/03/13 11:18:55;;;;;;;11.70;2.28;;;13.00;99.90;;;;;;4985898;28;20113;-83
2023/03/13 11:21:33;;;;;;;9.55;2.60;;;13.00;99.90;;;;;;4988563;28;20042;-81
2023/03/13 11:24:09;;;;;;;10.20;2.28;;;13.00;99.90;;;;;;4982922;28;20046;-85
2023/03/13 11:26:37;;;;;;;9.13;2.22;;;13.00;99.90;;;;;;4981158;28;20046;-88
2023/03/13 11:29:31;;;;;;;11.73;2.70;;;13.10;99.90;;;;;;4981273;28;20040;-92
2023/03/13 11:32:01;;;;;;;9.70;2.10;;;13.10;99.90;;;;;;4981230;28;20041;-91
2023/03/13 11:34:42;;;;;;;11.88;1.95;;;13.20;99.90;;;;;;4985468;28;20055;-95
2023/03/13 11:37:14;;;;;;;10.10;2.05;;;13.20;99.90;;;;;;4989092;28;20042;-96
2023/03/13 11:39:46;;;;;;;13.13;2.17;;;13.30;99.90;;;;;;4989198;28;20050;-95
2023/03/13 11:42:30;;;;;;;8.80;1.98;;;13.30;99.90;;;;;;4985291;28;20038;-95
2023/03/13 11:45:26;;;;;;;10.35;1.85;;;13.30;99.90;;;;;;4989083;28;20046;-94
2023/03/13 11:48:17;;;;;;;6.07;1.73;;;13.40;99.90;;;;;;4957370;28;20409;-93
2023/03/13 11:51:02;;;;;;;9.90;2.03;;;13.40;99.90;;;;;;4980874;28;20042;-93
2023/03/13 11:53:55;;;;;;;9.95;2.08;;;13.50;99.90;;;;;;4990044;28;20048;-92
2023/03/13 11:56:57;;;;;;;5.70;1.60;;;13.60;99.90;;;;;;4981758;28;20046;-93
2023/03/13 11:59:46;;;;;;;8.32;1.52;;;13.70;99.90;;;;;;4976227;28;20400;-95
2023/03/13 12:02:30;;;;;;;5.65;1.33;;;13.80;99.90;;;;;;4986600;28;20034;-93
2023/03/13 12:05:07;;;;;;;6.63;1.30;;;13.80;99.90;;;;;;4986337;28;20046;-93
2023/03/13 12:07:45;;;;;;;7.22;1.55;;;13.80;99.90;;;;;;4980847;28;20048;-95
2023/03/13 12:10:12;;;;;;;7.25;1.23;;;13.80;99.90;;;;;;4988927;28;20102;-93
2023/03/13 12:12:47;;;;;;;8.95;1.52;;;13.80;99.90;;;;;;4968299;28;20054;-94
2023/03/13 12:15:25;;;;;;;5.85;1.33;;;13.80;99.90;;;;;;4975809;28;20034;-94
2023/03/13 12:18:28;;;;;;;12.35;2.45;;;13.90;99.90;;;;;;4969128;28;20042;-94
2023/03/13 12:21:13;;;;;;;6.80;1.38;;;13.80;99.90;;;;;;4981046;28;20457;-94
2023/03/13 12:23:42;;;;;;;8.27;1.50;;;13.80;99.90;;;;;;4986201;28;20178;-95
2023/03/13 12:26:17;;;;;;;10.32;1.67;;;13.90;99.90;;;;;;4987721;28;20113;-95
2023/03/13 12:28:46;;;;;;;9.55;2.28;;;14.00;99.90;;;;;;4995111;28;20033;-95
2023/03/13 12:31:25;;;;;;;6.45;1.40;;;14.00;99.90;;;;;;4977229;28;20038;-96
2023/03/13 12:33:54;;;;;;;6.32;1.42;;;14.00;99.90;;;;;;4974512;28;20093;-95
2023/03/13 12:36:48;;;;;;;10.10;1.63;;;14.10;99.90;;;;;;5006227;28;20037;-95
2023/03/13 12:39:54;;;;;;;12.30;1.60;;;14.10;99.90;;;;;;4998194;28;20078;-93
2023/03/13 12:42:30;;;;;;;;;;;14.20;99.90;;;;;;5002923;28;20030;-94
2023/03/13 12:44:57;;;;;;;10.90;1.85;;;14.30;99.90;;;;;;5008129;28;19917;-93
2023/03/13 12:47:33;;;;;;;12.60;1.52;;;14.30;99.90;;;;;;5002794;28;20050;-94
2023/03/13 12:50:22;;;;;;;8.90;1.95;;;14.30;99.90;;;;;;4999521;28;20490;-94
2023/03/13 12:53:20;;;;;;;10.60;2.70;;;14.20;99.90;;;;;;4980311;28;20041;-92
2023/03/13 12:55:48;;;;;;;10.10;1.85;;;14.10;99.90;;;;;;4992956;28;20092;-92